Las Vegas Municipal Airport
KLVS : now visible

Airfield :











YOU CAN JOIN US ON...

 
LOGIN :

Register | Disclaimer

   EN    FR    IT 

 









Legend :    VFR   Marginal VFR   IFR   Intensive IFR   Very Intensive IFR
Visi :
Ceiling :
>= 8 km
>= 3000ft
5 to 8 km
1000 to 3000 ft
1500m to 5 km
500 to 1000 ft
800 to 1500m
200 to 500 ft
< 800m
< 200 ft
Symbols :   Thunderstorms  Fog  Heavy snow  Heavy precipitations  Wind > 20 kt






- Airport Elevation : 6877 ft


KLVS - Las Vegas Municipal

CURRENT METAR :
  • 131553Z AUTO 00000KT 10SM CLR 25/09 A3040 RMK AO2 SLP181 T02500089

EXPIRED METARs :
  • 131453Z AUTO 35003KT 10SM CLR 22/09 A3040 RMK AO2 SLP179 T02170089 50006
  • 131353Z AUTO 22004KT 10SM CLR 18/09 A3041 RMK AO2 SLP184 T01830089
  • 131253Z AUTO 18008KT 10SM CLR 14/07 A3040 RMK AO2 SLP186 T01440067
  • 131153Z AUTO 00000KT 10SM CLR 11/06 A3038 RMK AO2 SLP181 T01110061 10172 20094 53002

TAF KLVS
Valid from the 13 at 12:00 until the 14 at 12:00 UTC


131141Z 1312/1412 18011KT P6SM FEW100 SCT150
FM132100 18013G23KT P6SM VCSH BKN100
FM140100 17011KT P6SM BKN100
FM140500 VRB06KT P6SM SCT100
KZAB FIR / North America



MET'MAP, your aeronautical weather chart ! - Copyright ORBIFLY December 2007 - Disclaimer

ORBIFLY MET'MAP TEAM :

Programming & Development : Alexandra Zaïnal
Original concept : Baudouin d'Aumeries
Technical & hardware support : Manuel Goepfert
Assistance : Marc-Olivier Méhu




SOURCES & CREDITS :

   NOAA       Earth
Advisory